Terminal Aerodrome Forecast
Issued by NWS Jackson, KY

Home | Current Version | Previous Version | Text Only | Print | Product List | Glossary On
Versions: 1 2 3 4 5 6 7 8 9 10 11 12 13 14 15 16 17 18 19 20
000
FTUS43 KJKL 191500 AAA
TAFJKL
TAF AMD
KJKL 191525Z 1915/2012 VRB05KT P6SM BKN015 BKN070
     FM191800 VRB05KT P6SM FEW020 BKN070
     FM200500 VRB02KT P6SM BKN060=

USA.gov is the U.S. government's official web portal to all federal, state and local government web resources and services.